sensor_id;sensor_type;location;lat;lon;timestamp;temperature;humidity
19892;DHT22;10108;50.142;8.724;2023-04-03T00:01:19;7.60;99.90
19892;DHT22;10108;50.142;8.724;2023-04-03T00:03:46;7.60;99.90
19892;DHT22;10108;50.142;8.724;2023-04-03T00:06:13;7.60;99.90
19892;DHT22;10108;50.142;8.724;2023-04-03T00:08:39;7.60;99.90
19892;DHT22;10108;50.142;8.724;2023-04-03T00:11:06;7.60;99.90
19892;DHT22;10108;50.142;8.724;2023-04-03T00:13:33;7.60;99.90
19892;DHT22;10108;50.142;8.724;2023-04-03T00:16:00;7.60;99.90
19892;DHT22;10108;50.142;8.724;2023-04-03T00:18:26;7.60;99.90
19892;DHT22;10108;50.142;8.724;2023-04-03T00:20:52;7.60;99.90
19892;DHT22;10108;50.142;8.724;2023-04-03T00:23:18;7.60;99.90
19892;DHT22;10108;50.142;8.724;2023-04-03T00:25:44;7.70;99.90
19892;DHT22;10108;50.142;8.724;2023-04-03T00:28:10;7.70;99.90
19892;DHT22;10108;50.142;8.724;2023-04-03T00:30:36;7.60;99.90
19892;DHT22;10108;50.142;8.724;2023-04-03T00:33:03;7.70;99.90
19892;DHT22;10108;50.142;8.724;2023-04-03T00:35:29;7.70;99.90
19892;DHT22;10108;50.142;8.724;2023-04-03T00:37:56;7.60;99.90
19892;DHT22;10108;50.142;8.724;2023-04-03T00:40:24;7.60;99.90
19892;DHT22;10108;50.142;8.724;2023-04-03T00:42:57;7.60;99.90
19892;DHT22;10108;50.142;8.724;2023-04-03T00:45:48;7.60;99.90
19892;DHT22;10108;50.142;8.724;2023-04-03T00:48:21;7.60;99.90
19892;DHT22;10108;50.142;8.724;2023-04-03T00:50:49;7.60;99.90
19892;DHT22;10108;50.142;8.724;2023-04-03T00:53:23;7.60;99.90
19892;DHT22;10108;50.142;8.724;2023-04-03T00:55:51;7.60;99.90
19892;DHT22;10108;50.142;8.724;2023-04-03T00:58:22;7.60;99.90
19892;DHT22;10108;50.142;8.724;2023-04-03T01:00:54;7.70;99.90
19892;DHT22;10108;50.142;8.724;2023-04-03T01:03:24;7.70;99.90
19892;DHT22;10108;50.142;8.724;2023-04-03T01:05:50;7.70;99.90
19892;DHT22;10108;50.142;8.724;2023-04-03T01:08:17;7.60;99.90
19892;DHT22;10108;50.142;8.724;2023-04-03T01:10:43;7.70;99.90
19892;DHT22;10108;50.142;8.724;2023-04-03T01:13:26;7.60;99.90
19892;DHT22;10108;50.142;8.724;2023-04-03T01:15:54;7.70;99.90
19892;DHT22;10108;50.142;8.724;2023-04-03T01:18:22;7.70;99.90
19892;DHT22;10108;50.142;8.724;2023-04-03T01:21:09;7.70;99.90
19892;DHT22;10108;50.142;8.724;2023-04-03T01:26:18;7.70;99.90
19892;DHT22;10108;50.142;8.724;2023-04-03T01:28:44;7.60;99.90
19892;DHT22;10108;50.142;8.724;2023-04-03T01:34:01;7.60;99.90
19892;DHT22;10108;50.142;8.724;2023-04-03T01:36:31;7.60;99.90
19892;DHT22;10108;50.142;8.724;2023-04-03T01:38:58;7.60;99.90
19892;DHT22;10108;50.142;8.724;2023-04-03T01:41:26;7.60;99.90
19892;DHT22;10108;50.142;8.724;2023-04-03T01:43:56;7.60;99.90
19892;DHT22;10108;50.142;8.724;2023-04-03T01:46:22;7.60;99.90
19892;DHT22;10108;50.142;8.724;2023-04-03T01:48:49;7.60;99.90
19892;DHT22;10108;50.142;8.724;2023-04-03T01:51:16;7.60;99.90
19892;DHT22;10108;50.142;8.724;2023-04-03T01:53:42;7.60;99.90
19892;DHT22;10108;50.142;8.724;2023-04-03T01:56:09;7.60;99.90
19892;DHT22;10108;50.142;8.724;2023-04-03T01:58:35;7.70;99.90
19892;DHT22;10108;50.142;8.724;2023-04-03T02:01:01;7.70;99.90
19892;DHT22;10108;50.142;8.724;2023-04-03T02:03:28;7.70;99.90
19892;DHT22;10108;50.142;8.724;2023-04-03T02:05:54;7.70;99.90
19892;DHT22;10108;50.142;8.724;2023-04-03T02:08:21;7.70;99.90
19892;DHT22;10108;50.142;8.724;2023-04-03T02:10:48;7.70;99.90
19892;DHT22;10108;50.142;8.724;2023-04-03T02:13:15;7.70;99.90
19892;DHT22;10108;50.142;8.724;2023-04-03T02:15:42;7.60;99.90
19892;DHT22;10108;50.142;8.724;2023-04-03T02:18:08;7.60;99.90
19892;DHT22;10108;50.142;8.724;2023-04-03T02:20:34;7.60;99.90
19892;DHT22;10108;50.142;8.724;2023-04-03T02:23:01;7.50;99.90
19892;DHT22;10108;50.142;8.724;2023-04-03T02:25:27;7.60;99.90
19892;DHT22;10108;50.142;8.724;2023-04-03T02:27:54;7.50;99.90
19892;DHT22;10108;50.142;8.724;2023-04-03T02:30:20;7.50;99.90
19892;DHT22;10108;50.142;8.724;2023-04-03T02:32:46;7.50;99.90
19892;DHT22;10108;50.142;8.724;2023-04-03T02:35:13;7.50;99.90
19892;DHT22;10108;50.142;8.724;2023-04-03T02:37:40;7.50;99.90
19892;DHT22;10108;50.142;8.724;2023-04-03T02:40:08;7.40;99.90
19892;DHT22;10108;50.142;8.724;2023-04-03T02:42:35;7.40;99.90
19892;DHT22;10108;50.142;8.724;2023-04-03T02:45:03;7.40;99.90
19892;DHT22;10108;50.142;8.724;2023-04-03T02:47:29;7.40;99.90
19892;DHT22;10108;50.142;8.724;2023-04-03T02:49:55;7.40;99.90
19892;DHT22;10108;50.142;8.724;2023-04-03T02:52:22;7.40;99.90
19892;DHT22;10108;50.142;8.724;2023-04-03T02:54:49;7.40;99.90
19892;DHT22;10108;50.142;8.724;2023-04-03T02:57:15;7.40;99.90
19892;DHT22;10108;50.142;8.724;2023-04-03T02:59:42;7.50;99.90
19892;DHT22;10108;50.142;8.724;2023-04-03T03:02:10;7.50;99.90
19892;DHT22;10108;50.142;8.724;2023-04-03T03:04:36;7.40;99.90
19892;DHT22;10108;50.142;8.724;2023-04-03T03:07:03;7.40;99.90
19892;DHT22;10108;50.142;8.724;2023-04-03T03:09:29;7.30;99.90
19892;DHT22;10108;50.142;8.724;2023-04-03T03:11:56;7.40;99.90
19892;DHT22;10108;50.142;8.724;2023-04-03T03:14:23;7.30;99.90
19892;DHT22;10108;50.142;8.724;2023-04-03T03:16:49;7.30;99.90
19892;DHT22;10108;50.142;8.724;2023-04-03T03:19:15;7.30;99.90
19892;DHT22;10108;50.142;8.724;2023-04-03T03:21:41;7.30;99.90
19892;DHT22;10108;50.142;8.724;2023-04-03T03:24:08;7.30;99.90
19892;DHT22;10108;50.142;8.724;2023-04-03T03:26:35;7.30;99.90
19892;DHT22;10108;50.142;8.724;2023-04-03T03:29:02;7.30;99.90
19892;DHT22;10108;50.142;8.724;2023-04-03T03:31:28;7.30;99.90
19892;DHT22;10108;50.142;8.724;2023-04-03T03:33:55;7.20;99.90
19892;DHT22;10108;50.142;8.724;2023-04-03T03:36:22;7.20;99.90
19892;DHT22;10108;50.142;8.724;2023-04-03T03:38:48;7.30;99.90
19892;DHT22;10108;50.142;8.724;2023-04-03T03:41:14;7.30;99.90
19892;DHT22;10108;50.142;8.724;2023-04-03T03:43:43;7.20;99.90
19892;DHT22;10108;50.142;8.724;2023-04-03T03:46:10;7.20;99.90
19892;DHT22;10108;50.142;8.724;2023-04-03T03:48:36;7.20;99.90
19892;DHT22;10108;50.142;8.724;2023-04-03T03:51:02;7.20;99.90
19892;DHT22;10108;50.142;8.724;2023-04-03T03:53:32;7.20;99.90
19892;DHT22;10108;50.142;8.724;2023-04-03T03:56:04;7.10;99.90
19892;DHT22;10108;50.142;8.724;2023-04-03T03:58:31;7.10;99.90
19892;DHT22;10108;50.142;8.724;2023-04-03T04:01:05;7.10;99.90
19892;DHT22;10108;50.142;8.724;2023-04-03T04:03:33;7.10;99.90
19892;DHT22;10108;50.142;8.724;2023-04-03T04:05:59;7.00;99.90
19892;DHT22;10108;50.142;8.724;2023-04-03T04:08:25;7.00;99.90
19892;DHT22;10108;50.142;8.724;2023-04-03T04:10:52;7.00;99.90
19892;DHT22;10108;50.142;8.724;2023-04-03T04:13:18;7.00;99.90
19892;DHT22;10108;50.142;8.724;2023-04-03T04:15:45;6.90;99.90
19892;DHT22;10108;50.142;8.724;2023-04-03T04:18:12;6.90;99.90
19892;DHT22;10108;50.142;8.724;2023-04-03T04:20:40;6.80;99.90
19892;DHT22;10108;50.142;8.724;2023-04-03T04:23:06;6.80;99.90
19892;DHT22;10108;50.142;8.724;2023-04-03T04:25:33;6.80;99.90
19892;DHT22;10108;50.142;8.724;2023-04-03T04:30:26;6.80;99.90
19892;DHT22;10108;50.142;8.724;2023-04-03T04:32:54;6.80;99.90
19892;DHT22;10108;50.142;8.724;2023-04-03T04:35:21;6.70;99.90
19892;DHT22;10108;50.142;8.724;2023-04-03T04:37:50;6.70;99.90
19892;DHT22;10108;50.142;8.724;2023-04-03T04:40:17;6.70;99.90
19892;DHT22;10108;50.142;8.724;2023-04-03T04:42:43;6.70;99.90
19892;DHT22;10108;50.142;8.724;2023-04-03T04:45:10;6.70;99.90
19892;DHT22;10108;50.142;8.724;2023-04-03T04:47:38;6.70;99.90
19892;DHT22;10108;50.142;8.724;2023-04-03T04:50:05;6.60;99.90
19892;DHT22;10108;50.142;8.724;2023-04-03T04:52:32;6.60;99.90
19892;DHT22;10108;50.142;8.724;2023-04-03T04:54:58;6.60;99.90
19892;DHT22;10108;50.142;8.724;2023-04-03T04:57:24;6.60;99.90
19892;DHT22;10108;50.142;8.724;2023-04-03T04:59:51;6.60;99.90
19892;DHT22;10108;50.142;8.724;2023-04-03T05:02:17;6.50;99.90
19892;DHT22;10108;50.142;8.724;2023-04-03T05:04:44;6.50;99.90
19892;DHT22;10108;50.142;8.724;2023-04-03T05:07:16;6.50;99.90
19892;DHT22;10108;50.142;8.724;2023-04-03T05:09:43;6.50;99.90
19892;DHT22;10108;50.142;8.724;2023-04-03T05:12:09;6.50;99.90
19892;DHT22;10108;50.142;8.724;2023-04-03T05:14:41;6.50;99.90
19892;DHT22;10108;50.142;8.724;2023-04-03T05:17:09;6.50;99.90
19892;DHT22;10108;50.142;8.724;2023-04-03T05:19:38;6.50;99.90
19892;DHT22;10108;50.142;8.724;2023-04-03T05:22:07;6.50;99.90
19892;DHT22;10108;50.142;8.724;2023-04-03T05:24:34;6.50;99.90
19892;DHT22;10108;50.142;8.724;2023-04-03T05:27:01;6.50;99.90
19892;DHT22;10108;50.142;8.724;2023-04-03T05:29:28;6.50;99.90
19892;DHT22;10108;50.142;8.724;2023-04-03T05:31:55;6.50;99.90
19892;DHT22;10108;50.142;8.724;2023-04-03T05:34:21;6.50;99.90
19892;DHT22;10108;50.142;8.724;2023-04-03T05:36:50;6.60;99.90
19892;DHT22;10108;50.142;8.724;2023-04-03T05:39:16;6.60;99.90
19892;DHT22;10108;50.142;8.724;2023-04-03T05:41:45;6.50;99.90
19892;DHT22;10108;50.142;8.724;2023-04-03T05:44:11;6.50;99.90
19892;DHT22;10108;50.142;8.724;2023-04-03T05:46:38;6.60;99.90
19892;DHT22;10108;50.142;8.724;2023-04-03T05:49:07;6.50;99.90
19892;DHT22;10108;50.142;8.724;2023-04-03T05:51:36;6.50;99.90
19892;DHT22;10108;50.142;8.724;2023-04-03T05:54:26;6.50;99.90
19892;DHT22;10108;50.142;8.724;2023-04-03T05:56:59;6.50;99.90
19892;DHT22;10108;50.142;8.724;2023-04-03T05:59:26;6.40;99.90
19892;DHT22;10108;50.142;8.724;2023-04-03T06:01:55;6.40;99.90
19892;DHT22;10108;50.142;8.724;2023-04-03T06:04:22;6.40;99.90
19892;DHT22;10108;50.142;8.724;2023-04-03T06:09:18;6.40;99.90
19892;DHT22;10108;50.142;8.724;2023-04-03T06:11:44;6.40;99.90
19892;DHT22;10108;50.142;8.724;2023-04-03T06:14:11;6.30;99.90
19892;DHT22;10108;50.142;8.724;2023-04-03T06:16:38;6.40;99.90
19892;DHT22;10108;50.142;8.724;2023-04-03T06:19:07;6.40;99.90
19892;DHT22;10108;50.142;8.724;2023-04-03T06:21:34;6.40;99.90
19892;DHT22;10108;50.142;8.724;2023-04-03T06:24:05;6.40;99.90
19892;DHT22;10108;50.142;8.724;2023-04-03T06:26:32;6.40;99.90
19892;DHT22;10108;50.142;8.724;2023-04-03T06:28:59;6.40;99.90
19892;DHT22;10108;50.142;8.724;2023-04-03T06:31:26;6.40;99.90
19892;DHT22;10108;50.142;8.724;2023-04-03T06:33:52;6.40;99.90
19892;DHT22;10108;50.142;8.724;2023-04-03T06:36:19;6.50;99.90
19892;DHT22;10108;50.142;8.724;2023-04-03T06:38:47;6.50;99.90
19892;DHT22;10108;50.142;8.724;2023-04-03T06:41:14;6.50;99.90
19892;DHT22;10108;50.142;8.724;2023-04-03T06:43:40;6.50;99.90
19892;DHT22;10108;50.142;8.724;2023-04-03T06:46:08;6.60;99.90
19892;DHT22;10108;50.142;8.724;2023-04-03T06:48:37;6.60;99.90
19892;DHT22;10108;50.142;8.724;2023-04-03T06:51:03;6.60;99.90
19892;DHT22;10108;50.142;8.724;2023-04-03T06:53:29;6.50;99.90
19892;DHT22;10108;50.142;8.724;2023-04-03T06:55:55;6.50;99.90
19892;DHT22;10108;50.142;8.724;2023-04-03T06:58:21;6.50;99.90
19892;DHT22;10108;50.142;8.724;2023-04-03T07:00:47;6.40;99.90
19892;DHT22;10108;50.142;8.724;2023-04-03T07:03:14;6.50;99.90
19892;DHT22;10108;50.142;8.724;2023-04-03T07:05:40;6.50;99.90
19892;DHT22;10108;50.142;8.724;2023-04-03T07:08:06;6.50;99.90
19892;DHT22;10108;50.142;8.724;2023-04-03T07:10:32;6.60;99.90
19892;DHT22;10108;50.142;8.724;2023-04-03T07:12:58;6.60;99.90
19892;DHT22;10108;50.142;8.724;2023-04-03T07:15:24;6.50;99.90
19892;DHT22;10108;50.142;8.724;2023-04-03T07:17:51;6.60;99.90
19892;DHT22;10108;50.142;8.724;2023-04-03T07:20:17;6.60;99.90
19892;DHT22;10108;50.142;8.724;2023-04-03T07:22:43;6.70;99.90
19892;DHT22;10108;50.142;8.724;2023-04-03T07:25:09;6.70;99.90
19892;DHT22;10108;50.142;8.724;2023-04-03T07:27:36;6.70;99.90
19892;DHT22;10108;50.142;8.724;2023-04-03T07:30:02;6.80;99.90
19892;DHT22;10108;50.142;8.724;2023-04-03T07:32:29;6.80;99.90
19892;DHT22;10108;50.142;8.724;2023-04-03T07:34:59;6.80;99.90
19892;DHT22;10108;50.142;8.724;2023-04-03T07:37:25;6.80;99.90
19892;DHT22;10108;50.142;8.724;2023-04-03T07:39:52;6.80;99.90
19892;DHT22;10108;50.142;8.724;2023-04-03T07:42:18;6.80;99.90
19892;DHT22;10108;50.142;8.724;2023-04-03T07:44:44;6.80;99.90
19892;DHT22;10108;50.142;8.724;2023-04-03T07:47:11;6.80;99.90
19892;DHT22;10108;50.142;8.724;2023-04-03T07:49:39;6.80;99.90
19892;DHT22;10108;50.142;8.724;2023-04-03T07:52:06;6.90;99.90
19892;DHT22;10108;50.142;8.724;2023-04-03T07:54:34;6.90;99.90
19892;DHT22;10108;50.142;8.724;2023-04-03T07:57:00;6.90;99.90
19892;DHT22;10108;50.142;8.724;2023-04-03T07:59:27;6.90;99.90
19892;DHT22;10108;50.142;8.724;2023-04-03T08:01:53;6.90;99.90
19892;DHT22;10108;50.142;8.724;2023-04-03T08:04:19;7.00;99.90
19892;DHT22;10108;50.142;8.724;2023-04-03T08:06:45;7.00;99.90
19892;DHT22;10108;50.142;8.724;2023-04-03T08:09:11;7.00;99.90
19892;DHT22;10108;50.142;8.724;2023-04-03T08:11:39;7.00;99.90
19892;DHT22;10108;50.142;8.724;2023-04-03T08:14:05;7.00;99.90
19892;DHT22;10108;50.142;8.724;2023-04-03T08:16:32;7.10;99.90
19892;DHT22;10108;50.142;8.724;2023-04-03T08:18:58;7.10;99.90
19892;DHT22;10108;50.142;8.724;2023-04-03T08:21:25;7.10;99.90
19892;DHT22;10108;50.142;8.724;2023-04-03T08:23:52;7.10;99.90
19892;DHT22;10108;50.142;8.724;2023-04-03T08:26:20;7.20;99.90
19892;DHT22;10108;50.142;8.724;2023-04-03T08:28:48;7.20;99.90
19892;DHT22;10108;50.142;8.724;2023-04-03T08:31:16;7.30;99.90
19892;DHT22;10108;50.142;8.724;2023-04-03T08:33:44;7.30;99.90
19892;DHT22;10108;50.142;8.724;2023-04-03T08:36:22;7.30;99.90
19892;DHT22;10108;50.142;8.724;2023-04-03T08:38:49;7.30;99.90
19892;DHT22;10108;50.142;8.724;2023-04-03T08:41:31;7.30;99.90
19892;DHT22;10108;50.142;8.724;2023-04-03T08:44:18;7.40;99.90
19892;DHT22;10108;50.142;8.724;2023-04-03T08:49:32;7.40;99.90
19892;DHT22;10108;50.142;8.724;2023-04-03T08:52:04;7.40;99.90
19892;DHT22;10108;50.142;8.724;2023-04-03T08:54:35;7.40;99.90
19892;DHT22;10108;50.142;8.724;2023-04-03T08:57:04;7.40;99.90
19892;DHT22;10108;50.142;8.724;2023-04-03T08:59:37;7.50;99.90
19892;DHT22;10108;50.142;8.724;2023-04-03T09:02:25;7.50;99.90
19892;DHT22;10108;50.142;8.724;2023-04-03T09:04:53;7.50;99.90
19892;DHT22;10108;50.142;8.724;2023-04-03T09:07:30;7.50;99.90
19892;DHT22;10108;50.142;8.724;2023-04-03T09:10:01;7.50;99.90
19892;DHT22;10108;50.142;8.724;2023-04-03T09:12:36;7.60;99.90
19892;DHT22;10108;50.142;8.724;2023-04-03T09:15:18;7.70;99.90
19892;DHT22;10108;50.142;8.724;2023-04-03T09:20:14;7.70;99.90
19892;DHT22;10108;50.142;8.724;2023-04-03T09:22:43;7.70;99.90
19892;DHT22;10108;50.142;8.724;2023-04-03T09:25:27;7.60;99.90
19892;DHT22;10108;50.142;8.724;2023-04-03T09:27:55;7.60;99.90
19892;DHT22;10108;50.142;8.724;2023-04-03T09:30:24;7.60;99.90
19892;DHT22;10108;50.142;8.724;2023-04-03T09:32:52;7.60;99.90
19892;DHT22;10108;50.142;8.724;2023-04-03T09:37:58;7.70;99.90
19892;DHT22;10108;50.142;8.724;2023-04-03T09:42:57;7.80;99.90
19892;DHT22;10108;50.142;8.724;2023-04-03T09:45:32;7.80;99.90
19892;DHT22;10108;50.142;8.724;2023-04-03T09:50:59;7.90;99.90
19892;DHT22;10108;50.142;8.724;2023-04-03T09:53:37;7.80;99.90
19892;DHT22;10108;50.142;8.724;2023-04-03T09:58:45;7.80;99.90
19892;DHT22;10108;50.142;8.724;2023-04-03T10:01:35;7.80;99.90
19892;DHT22;10108;50.142;8.724;2023-04-03T10:06:45;8.00;99.90
19892;DHT22;10108;50.142;8.724;2023-04-03T10:12:09;8.10;99.90
19892;DHT22;10108;50.142;8.724;2023-04-03T10:14:55;8.10;99.90
19892;DHT22;10108;50.142;8.724;2023-04-03T10:20:35;8.10;99.90
19892;DHT22;10108;50.142;8.724;2023-04-03T10:23:21;8.00;99.90
19892;DHT22;10108;50.142;8.724;2023-04-03T10:25:51;8.00;99.90
19892;DHT22;10108;50.142;8.724;2023-04-03T10:28:46;8.00;99.90
19892;DHT22;10108;50.142;8.724;2023-04-03T10:34:35;7.90;99.90
19892;DHT22;10108;50.142;8.724;2023-04-03T10:37:29;8.00;99.90
19892;DHT22;10108;50.142;8.724;2023-04-03T10:46:07;8.00;99.90
19892;DHT22;10108;50.142;8.724;2023-04-03T10:48:56;8.10;99.90
19892;DHT22;10108;50.142;8.724;2023-04-03T10:57:35;8.30;99.50
19892;DHT22;10108;50.142;8.724;2023-04-03T11:00:19;8.20;99.90
19892;DHT22;10108;50.142;8.724;2023-04-03T11:02:54;8.30;99.90
19892;DHT22;10108;50.142;8.724;2023-04-03T11:05:44;8.30;99.90
19892;DHT22;10108;50.142;8.724;2023-04-03T11:10:48;8.30;99.30
19892;DHT22;10108;50.142;8.724;2023-04-03T11:13:40;8.30;99.20
19892;DHT22;10108;50.142;8.724;2023-04-03T11:16:08;8.30;99.90
19892;DHT22;10108;50.142;8.724;2023-04-03T11:18:48;8.30;99.90
19892;DHT22;10108;50.142;8.724;2023-04-03T11:21:39;8.40;99.30
19892;DHT22;10108;50.142;8.724;2023-04-03T11:24:17;8.40;98.90
19892;DHT22;10108;50.142;8.724;2023-04-03T11:26:47;8.40;99.00
19892;DHT22;10108;50.142;8.724;2023-04-03T11:29:19;8.40;99.10
19892;DHT22;10108;50.142;8.724;2023-04-03T11:32:09;8.40;97.50
19892;DHT22;10108;50.142;8.724;2023-04-03T11:34:42;8.40;97.80
19892;DHT22;10108;50.142;8.724;2023-04-03T11:37:41;8.40;98.70
19892;DHT22;10108;50.142;8.724;2023-04-03T11:42:48;8.50;98.20
19892;DHT22;10108;50.142;8.724;2023-04-03T11:50:43;8.50;96.80
19892;DHT22;10108;50.142;8.724;2023-04-03T11:55:59;8.40;97.40
19892;DHT22;10108;50.142;8.724;2023-04-03T11:58:34;8.50;97.20
19892;DHT22;10108;50.142;8.724;2023-04-03T12:01:08;8.50;97.80
19892;DHT22;10108;50.142;8.724;2023-04-03T12:14:04;8.70;96.70
19892;DHT22;10108;50.142;8.724;2023-04-03T12:16:46;8.70;96.90
19892;DHT22;10108;50.142;8.724;2023-04-03T12:19:38;8.70;95.90
19892;DHT22;10108;50.142;8.724;2023-04-03T12:22:11;8.70;96.80
19892;DHT22;10108;50.142;8.724;2023-04-03T12:24:43;8.70;95.90
19892;DHT22;10108;50.142;8.724;2023-04-03T12:27:27;8.60;96.50
19892;DHT22;10108;50.142;8.724;2023-04-03T12:32:45;8.70;98.00
19892;DHT22;10108;50.142;8.724;2023-04-03T12:36:11;8.70;95.60
19892;DHT22;10108;50.142;8.724;2023-04-03T12:41:42;8.70;97.20
19892;DHT22;10108;50.142;8.724;2023-04-03T12:44:35;8.60;97.00
19892;DHT22;10108;50.142;8.724;2023-04-03T12:47:27;8.70;95.60
19892;DHT22;10108;50.142;8.724;2023-04-03T12:49:54;8.70;96.20
19892;DHT22;10108;50.142;8.724;2023-04-03T12:55:00;8.80;95.10
19892;DHT22;10108;50.142;8.724;2023-04-03T12:57:30;8.80;95.50
19892;DHT22;10108;50.142;8.724;2023-04-03T12:59:56;8.80;95.30
19892;DHT22;10108;50.142;8.724;2023-04-03T13:02:26;8.80;95.80
19892;DHT22;10108;50.142;8.724;2023-04-03T13:04:56;8.80;96.90
19892;DHT22;10108;50.142;8.724;2023-04-03T13:07:28;8.80;96.40
19892;DHT22;10108;50.142;8.724;2023-04-03T13:10:03;8.90;96.00
19892;DHT22;10108;50.142;8.724;2023-04-03T13:12:30;8.90;95.40
19892;DHT22;10108;50.142;8.724;2023-04-03T13:15:00;8.80;93.60
19892;DHT22;10108;50.142;8.724;2023-04-03T13:17:27;8.80;94.90
19892;DHT22;10108;50.142;8.724;2023-04-03T13:19:54;8.80;95.60
19892;DHT22;10108;50.142;8.724;2023-04-03T13:24:58;8.80;94.90
19892;DHT22;10108;50.142;8.724;2023-04-03T13:27:26;8.90;94.20
19892;DHT22;10108;50.142;8.724;2023-04-03T13:29:54;8.90;94.30
19892;DHT22;10108;50.142;8.724;2023-04-03T13:32:24;8.90;93.30
19892;DHT22;10108;50.142;8.724;2023-04-03T13:34:51;8.90;94.30
19892;DHT22;10108;50.142;8.724;2023-04-03T13:37:26;8.90;93.90
19892;DHT22;10108;50.142;8.724;2023-04-03T13:42:35;8.90;95.50
19892;DHT22;10108;50.142;8.724;2023-04-03T13:47:47;9.00;93.60
19892;DHT22;10108;50.142;8.724;2023-04-03T13:50:24;9.00;95.20
19892;DHT22;10108;50.142;8.724;2023-04-03T13:53:03;9.00;94.60
19892;DHT22;10108;50.142;8.724;2023-04-03T13:55:39;9.00;94.10
19892;DHT22;10108;50.142;8.724;2023-04-03T13:58:23;8.90;94.30
19892;DHT22;10108;50.142;8.724;2023-04-03T14:00:58;9.00;94.40
19892;DHT22;10108;50.142;8.724;2023-04-03T14:03:30;8.90;93.90
19892;DHT22;10108;50.142;8.724;2023-04-03T14:05:57;9.00;94.80
19892;DHT22;10108;50.142;8.724;2023-04-03T14:08:24;9.00;94.20
19892;DHT22;10108;50.142;8.724;2023-04-03T14:10:50;9.00;94.20
19892;DHT22;10108;50.142;8.724;2023-04-03T14:13:19;9.00;93.20
19892;DHT22;10108;50.142;8.724;2023-04-03T14:15:47;9.00;94.10
19892;DHT22;10108;50.142;8.724;2023-04-03T14:18:16;8.90;94.90
19892;DHT22;10108;50.142;8.724;2023-04-03T14:20:46;9.00;94.10
19892;DHT22;10108;50.142;8.724;2023-04-03T14:23:13;9.00;93.80
19892;DHT22;10108;50.142;8.724;2023-04-03T14:25:40;9.00;93.70
19892;DHT22;10108;50.142;8.724;2023-04-03T14:28:20;9.00;92.90
19892;DHT22;10108;50.142;8.724;2023-04-03T14:30:48;9.10;92.30
19892;DHT22;10108;50.142;8.724;2023-04-03T14:33:18;9.10;94.00
19892;DHT22;10108;50.142;8.724;2023-04-03T14:35:45;9.00;92.00
19892;DHT22;10108;50.142;8.724;2023-04-03T14:38:29;9.00;91.70
19892;DHT22;10108;50.142;8.724;2023-04-03T14:40:57;9.00;93.70
19892;DHT22;10108;50.142;8.724;2023-04-03T14:43:23;9.10;93.60
19892;DHT22;10108;50.142;8.724;2023-04-03T14:45:50;9.00;92.20
19892;DHT22;10108;50.142;8.724;2023-04-03T14:48:22;9.00;92.30
19892;DHT22;10108;50.142;8.724;2023-04-03T14:50:50;9.00;94.00
19892;DHT22;10108;50.142;8.724;2023-04-03T14:53:17;9.00;94.50
19892;DHT22;10108;50.142;8.724;2023-04-03T14:55:49;9.00;92.90
19892;DHT22;10108;50.142;8.724;2023-04-03T14:58:17;9.00;93.60
19892;DHT22;10108;50.142;8.724;2023-04-03T15:00:44;9.00;93.30
19892;DHT22;10108;50.142;8.724;2023-04-03T15:03:19;9.00;92.70
19892;DHT22;10108;50.142;8.724;2023-04-03T15:05:47;9.10;93.30
19892;DHT22;10108;50.142;8.724;2023-04-03T15:08:33;9.00;92.70
19892;DHT22;10108;50.142;8.724;2023-04-03T15:10:59;9.00;90.90
19892;DHT22;10108;50.142;8.724;2023-04-03T15:13:26;9.00;91.40
19892;DHT22;10108;50.142;8.724;2023-04-03T15:15:53;9.00;91.40
19892;DHT22;10108;50.142;8.724;2023-04-03T15:18:27;9.10;90.50
19892;DHT22;10108;50.142;8.724;2023-04-03T15:20:54;9.00;90.90
19892;DHT22;10108;50.142;8.724;2023-04-03T15:23:21;9.00;90.80
19892;DHT22;10108;50.142;8.724;2023-04-03T15:25:52;9.00;91.80
19892;DHT22;10108;50.142;8.724;2023-04-03T15:28:37;9.00;91.30
19892;DHT22;10108;50.142;8.724;2023-04-03T15:31:04;9.10;92.20
19892;DHT22;10108;50.142;8.724;2023-04-03T15:33:32;9.10;91.70
19892;DHT22;10108;50.142;8.724;2023-04-03T15:35:58;9.10;92.00
19892;DHT22;10108;50.142;8.724;2023-04-03T15:38:24;9.10;91.10
19892;DHT22;10108;50.142;8.724;2023-04-03T15:40:51;9.10;91.00
19892;DHT22;10108;50.142;8.724;2023-04-03T15:43:17;9.20;91.80
19892;DHT22;10108;50.142;8.724;2023-04-03T15:45:44;9.20;92.40
19892;DHT22;10108;50.142;8.724;2023-04-03T15:48:11;9.20;91.90
19892;DHT22;10108;50.142;8.724;2023-04-03T15:50:39;9.20;91.00
19892;DHT22;10108;50.142;8.724;2023-04-03T15:53:05;9.20;91.70
19892;DHT22;10108;50.142;8.724;2023-04-03T15:55:33;9.20;91.00
19892;DHT22;10108;50.142;8.724;2023-04-03T15:58:04;9.20;89.80
19892;DHT22;10108;50.142;8.724;2023-04-03T16:00:31;9.20;90.80
19892;DHT22;10108;50.142;8.724;2023-04-03T16:03:11;9.20;90.60
19892;DHT22;10108;50.142;8.724;2023-04-03T16:05:38;9.20;91.30
19892;DHT22;10108;50.142;8.724;2023-04-03T16:08:06;9.20;91.00
19892;DHT22;10108;50.142;8.724;2023-04-03T16:10:34;9.10;90.90
19892;DHT22;10108;50.142;8.724;2023-04-03T16:13:01;9.20;91.90
19892;DHT22;10108;50.142;8.724;2023-04-03T16:15:27;9.20;90.90
19892;DHT22;10108;50.142;8.724;2023-04-03T16:17:55;9.20;90.90
19892;DHT22;10108;50.142;8.724;2023-04-03T16:20:21;9.10;90.50
19892;DHT22;10108;50.142;8.724;2023-04-03T16:22:48;9.10;91.50
19892;DHT22;10108;50.142;8.724;2023-04-03T16:25:14;9.10;90.40
19892;DHT22;10108;50.142;8.724;2023-04-03T16:27:41;9.10;91.10
19892;DHT22;10108;50.142;8.724;2023-04-03T16:30:09;9.00;90.90
19892;DHT22;10108;50.142;8.724;2023-04-03T16:32:36;9.00;89.90
19892;DHT22;10108;50.142;8.724;2023-04-03T16:35:03;9.00;91.10
19892;DHT22;10108;50.142;8.724;2023-04-03T16:37:29;8.90;90.80
19892;DHT22;10108;50.142;8.724;2023-04-03T16:39:56;8.90;90.80
19892;DHT22;10108;50.142;8.724;2023-04-03T16:42:24;8.90;90.40
19892;DHT22;10108;50.142;8.724;2023-04-03T16:44:51;8.90;88.20
19892;DHT22;10108;50.142;8.724;2023-04-03T16:47:17;8.90;90.80
19892;DHT22;10108;50.142;8.724;2023-04-03T16:49:45;8.90;91.60
19892;DHT22;10108;50.142;8.724;2023-04-03T16:52:12;8.80;91.00
19892;DHT22;10108;50.142;8.724;2023-04-03T16:54:38;8.80;91.00
19892;DHT22;10108;50.142;8.724;2023-04-03T16:57:04;8.80;91.20
19892;DHT22;10108;50.142;8.724;2023-04-03T16:59:30;8.70;91.30
19892;DHT22;10108;50.142;8.724;2023-04-03T17:01:56;8.70;91.50
19892;DHT22;10108;50.142;8.724;2023-04-03T17:04:22;8.70;91.50
19892;DHT22;10108;50.142;8.724;2023-04-03T17:06:49;8.60;91.50
19892;DHT22;10108;50.142;8.724;2023-04-03T17:09:15;8.60;91.60
19892;DHT22;10108;50.142;8.724;2023-04-03T17:11:41;8.60;92.00
19892;DHT22;10108;50.142;8.724;2023-04-03T17:14:08;8.60;92.50
19892;DHT22;10108;50.142;8.724;2023-04-03T17:16:35;8.50;91.00
19892;DHT22;10108;50.142;8.724;2023-04-03T17:19:02;8.50;90.70
19892;DHT22;10108;50.142;8.724;2023-04-03T17:21:29;8.50;90.50
19892;DHT22;10108;50.142;8.724;2023-04-03T17:23:59;8.40;90.20
19892;DHT22;10108;50.142;8.724;2023-04-03T17:26:27;8.40;90.20
19892;DHT22;10108;50.142;8.724;2023-04-03T17:28:53;8.30;89.10
19892;DHT22;10108;50.142;8.724;2023-04-03T17:31:19;8.30;90.00